Time;durP1;ratioP1;P1;durP2;ratioP2;P2;SDS_P1;SDS_P2;PMS_P1;PMS_P2;Temp;Humidity;BMP_temperature;BMP_pressure;BME280_temperature;BME280_humidity;BME280_pressure;Samples;Min_cycle;Max_cycle;Signal;HPM_P1;HPM_P2
2022/09/03 00:00:40;;;;;;;;;;;;;;;17.97;55.56;101032.38;5034030;28;20406;-43
2022/09/03 00:03:15;;;;;;;;;;;;;;;17.95;56.26;101034.44;5035659;28;20011;-45
2022/09/03 00:05:44;;;;;;;;;;;;;;;17.92;56.64;101034.84;5036292;28;20375;-43
2022/09/03 00:08:09;;;;;;;;;;;;;;;17.88;55.19;101027.16;5035808;28;19916;-44
2022/09/03 00:10:40;;;;;;;;;;;;;;;17.85;57.16;101027.56;5035358;28;20290;-46
2022/09/03 00:13:06;;;;;;;;;;;;;;;17.82;57.03;101025.25;5016248;28;20228;-43
2022/09/03 00:15:33;;;;;;;;;;;;;;;17.78;57.25;101021.28;5015847;28;19955;-43
2022/09/03 00:18:04;;;;;;;;;;;;;;;17.76;56.05;101019.84;5021334;28;20007;-45
2022/09/03 00:20:32;;;;;;;;;;;;;;;17.71;58.16;101017.75;5030383;28;19913;-42
2022/09/03 00:22:59;;;;;;;;;;;;;;;17.67;56.96;101020.03;5025118;28;19908;-43
2022/09/03 00:25:33;;;;;;;;;;;;;;;17.62;58.22;101017.09;5034701;28;20376;-45
2022/09/03 00:28:01;;;;;;;;;;;;;;;17.60;58.28;101029.13;5035654;28;20498;-44
2022/09/03 00:30:27;;;;;;;;;;;;;;;17.55;58.18;101027.06;5026519;28;19908;-43
2022/09/03 00:32:53;;;;;;;;;;;;;;;17.52;58.06;101030.16;5031817;28;19920;-41
2022/09/03 00:35:39;;;;;;;;;;;;;;;17.47;59.24;101022.66;5029106;28;19919;-44
2022/09/03 00:38:05;;;;;;;;;;;;;;;17.43;59.60;101015.16;5026143;28;19921;-42
2022/09/03 00:40:30;;;;;;;;;;;;;;;17.42;59.65;101017.03;5034717;28;19915;-43
2022/09/03 00:43:14;;;;;;;;;;;;;;;17.36;59.18;101019.69;5033009;28;19917;-43
2022/09/03 00:45:47;;;;;;;;;;;;;;;17.32;59.32;101021.97;5028488;28;20011;-47
2022/09/03 00:48:16;;;;;;;;;;;;;;;17.29;59.87;101014.28;5021829;28;20318;-44
2022/09/03 00:50:45;;;;;;;;;;;;;;;17.26;59.42;101018.22;5035250;28;20026;-44
2022/09/03 00:53:27;;;;;;;;;;;;;;;17.22;60.34;101019.63;5017865;28;19916;-42
2022/09/03 00:55:59;;;;;;;;;;;;;;;17.22;59.83;101026.91;5028005;28;19980;-41
2022/09/03 00:58:54;;;;;;;;;;;;;;;17.20;60.00;101015.50;5029641;28;20010;-45
2022/09/03 01:01:22;;;;;;;;;;;;;;;17.20;59.49;101020.88;5032980;28;19916;-45
2022/09/03 01:04:05;;;;;;;;;;;;;;;17.21;59.73;101018.00;5026254;28;20342;-44
2022/09/03 01:06:41;;;;;;;;;;;;;;;17.22;58.85;101024.22;5032901;28;19920;-43
2022/09/03 01:09:10;;;;;;;;;;;;;;;17.24;58.57;101022.16;5028308;28;20423;-45
2022/09/03 01:11:44;;;;;;;;;;;;;;;17.25;59.32;101008.44;5035223;28;20062;-41
2022/09/03 01:14:28;;;;;;;;;;;;;;;17.25;59.04;101013.84;5026517;28;20691;-44
2022/09/03 01:17:02;;;;;;;;;;;;;;;17.26;58.92;101011.97;5033216;28;20224;-43
2022/09/03 01:19:34;;;;;;;;;;;;;;;17.24;59.99;101019.44;5027987;28;19912;-43
2022/09/03 01:22:18;;;;;;;;;;;;;;;17.21;59.25;101015.28;5020291;28;19917;-41
2022/09/03 01:24:58;;;;;;;;;;;;;;;17.18;59.57;101021.09;5033708;28;19948;-44
2022/09/03 01:27:26;;;;;;;;;;;;;;;17.17;59.80;101019.41;5021345;28;19908;-43
2022/09/03 01:30:15;;;;;;;;;;;;;;;17.14;60.46;101017.97;5033761;28;19912;-43
2022/09/03 01:32:41;;;;;;;;;;;;;;;17.10;60.20;101019.38;5034534;28;20578;-45
2022/09/03 01:35:06;;;;;;;;;;;;;;;17.08;60.49;101017.94;5032495;28;19909;-43
2022/09/03 01:37:37;;;;;;;;;;;;;;;17.04;60.91;101017.50;5034202;28;20346;-43
2022/09/03 01:40:14;;;;;;;;;;;;;;;17.04;60.67;101020.19;5028254;28;19980;-43
2022/09/03 01:42:59;;;;;;;;;;;;;;;17.00;61.29;101020.78;5024167;28;19909;-46
2022/09/03 01:45:31;;;;;;;;;;;;;;;16.97;61.37;101022.00;5035652;28;19909;-43
2022/09/03 01:48:01;;;;;;;;;;;;;;;16.90;61.37;101016.56;5037946;28;19908;-46
2022/09/03 01:50:42;;;;;;;;;;;;;;;16.88;60.66;101015.13;5033238;28;19961;-42
2022/09/03 01:53:16;;;;;;;;;;;;;;;16.85;61.19;101010.09;5036246;28;19960;-42
2022/09/03 01:55:42;;;;;;;;;;;;;;;16.79;61.43;101012.53;5037741;28;19969;-44
2022/09/03 01:58:14;;;;;;;;;;;;;;;16.75;60.47;101013.13;5037886;28;20333;-43
2022/09/03 02:00:42;;;;;;;;;;;;;;;16.72;62.56;101010.84;5030174;28;19999;-43
2022/09/03 02:03:08;;;;;;;;;;;;;;;16.69;61.82;101011.25;5038297;28;20441;-45
2022/09/03 02:05:34;;;;;;;;;;;;;;;16.67;61.26;101013.31;5037955;28;19982;-43
2022/09/03 02:08:04;;;;;;;;;;;;;;;16.63;62.09;101012.00;5037963;28;19936;-43
2022/09/03 02:10:38;;;;;;;;;;;;;;;16.58;62.35;101010.75;5029180;28;19912;-43
2022/09/03 02:13:31;;;;;;;;;;;;;;;16.53;63.04;101018.59;5037676;28;20023;-43
2022/09/03 02:15:58;;;;;;;;;;;;;;;16.51;62.93;101011.72;5035637;28;19944;-46
2022/09/03 02:18:36;;;;;;;;;;;;;;;16.50;63.35;101012.78;5023392;28;19913;-42
2022/09/03 02:21:01;;;;;;;;;;;;;;;16.48;63.59;101006.72;5021873;28;20470;-46
2022/09/03 02:23:27;;;;;;;;;;;;;;;16.47;63.67;101010.47;5032877;28;19908;-47
2022/09/03 02:25:56;;;;;;;;;;;;;;;16.46;63.96;101006.91;5037852;28;20329;-46
2022/09/03 02:28:22;;;;;;;;;;;;;;;16.45;63.53;101009.84;5037400;28;20415;-46
2022/09/03 02:30:47;;;;;;;;;;;;;;;16.42;63.86;101006.47;5035296;28;20054;-42
2022/09/03 02:33:13;;;;;;;;;;;;;;;16.43;63.63;101012.72;5038539;28;19939;-44
2022/09/03 02:35:39;;;;;;;;;;;;;;;16.43;62.89;101010.03;5037732;28;19979;-46
2022/09/03 02:38:10;;;;;;;;;;;;;;;16.42;62.63;101008.34;5036945;28;20070;-43
2022/09/03 02:40:35;;;;;;;;;;;;;;;16.41;63.68;101009.34;5034973;28;19916;-44
2022/09/03 02:43:03;;;;;;;;;;;;;;;16.40;63.20;101016.63;5036628;28;20407;-41
2022/09/03 02:45:28;;;;;;;;;;;;;;;16.42;62.92;101014.56;5035701;28;20275;-42
2022/09/03 02:47:55;;;;;;;;;;;;;;;16.41;63.81;101014.75;5028935;28;19930;-44
2022/09/03 02:50:20;;;;;;;;;;;;;;;16.42;62.64;101014.56;5034300;28;19999;-42
2022/09/03 02:52:45;;;;;;;;;;;;;;;16.44;61.86;101010.84;5036567;28;20066;-43
2022/09/03 02:55:10;;;;;;;;;;;;;;;16.44;63.42;101008.97;5037672;28;20003;-43
2022/09/03 02:57:36;;;;;;;;;;;;;;;16.44;63.67;101010.84;5037254;28;20303;-45
2022/09/03 03:00:01;;;;;;;;;;;;;;;16.37;63.44;101003.53;5030837;28;20082;-41
2022/09/03 03:02:26;;;;;;;;;;;;;;;16.41;62.55;101004.81;5036935;28;20383;-45
2022/09/03 03:04:51;;;;;;;;;;;;;;;16.40;63.53;101010.41;5035612;28;19916;-41
2022/09/03 03:07:16;;;;;;;;;;;;;;;16.36;63.68;101007.28;5034208;28;19912;-41
2022/09/03 03:09:42;;;;;;;;;;;;;;;16.35;64.06;101010.16;5030379;28;20401;-43
2022/09/03 03:12:09;;;;;;;;;;;;;;;16.31;64.07;101007.03;5028055;28;19917;-41
2022/09/03 03:14:34;;;;;;;;;;;;;;;16.29;64.10;101000.16;5035873;28;19922;-41
2022/09/03 03:16:59;;;;;;;;;;;;;;;16.26;64.55;101009.47;5034701;28;20003;-43
2022/09/03 03:19:24;;;;;;;;;;;;;;;16.22;64.70;101008.19;5034855;28;19972;-44
2022/09/03 03:21:50;;;;;;;;;;;;;;;16.17;64.69;101006.09;5022605;28;19909;-43
2022/09/03 03:24:15;;;;;;;;;;;;;;;16.15;66.10;101004.59;5036647;28;20017;-41
2022/09/03 03:26:40;;;;;;;;;;;;;;;16.13;63.29;101004.78;5037071;28;19948;-43
2022/09/03 03:29:05;;;;;;;;;;;;;;;16.12;67.14;101000.41;5031100;28;19924;-43
2022/09/03 03:31:31;;;;;;;;;;;;;;;16.11;65.42;100995.25;5026526;28;20178;-42
2022/09/03 03:33:57;;;;;;;;;;;;;;;16.09;64.53;101002.66;5036741;28;19936;-42
2022/09/03 03:36:23;;;;;;;;;;;;;;;16.06;65.77;101001.22;5036514;28;19909;-45
2022/09/03 03:38:51;;;;;;;;;;;;;;;16.04;66.96;101005.97;5020633;28;19924;-44
2022/09/03 03:41:18;;;;;;;;;;;;;;;16.05;65.99;101021.09;5025922;28;19914;-41
2022/09/03 03:43:43;;;;;;;;;;;;;;;16.04;66.48;101012.19;5036567;28;19909;-42
2022/09/03 03:46:09;;;;;;;;;;;;;;;16.04;65.91;101005.97;5034152;28;19966;-42
2022/09/03 03:48:35;;;;;;;;;;;;;;;16.03;65.77;101009.66;5029303;28;19913;-45
2022/09/03 03:51:03;;;;;;;;;;;;;;;16.00;65.75;101015.44;5035085;28;19931;-44
2022/09/03 03:53:28;;;;;;;;;;;;;;;15.99;65.30;101003.03;5034757;28;20232;-42
2022/09/03 03:55:56;;;;;;;;;;;;;;;16.00;65.64;101005.53;5036242;28;20023;-45
2022/09/03 03:58:22;;;;;;;;;;;;;;;15.97;65.43;101005.03;5026535;28;19959;-45
2022/09/03 04:00:48;;;;;;;;;;;;;;;15.97;65.52;101008.59;5019643;28;19921;-43
2022/09/03 04:03:14;;;;;;;;;;;;;;;15.97;64.45;101000.50;5036385;28;20317;-44
2022/09/03 04:05:39;;;;;;;;;;;;;;;15.95;66.70;100999.03;5033683;28;19962;-41
2022/09/03 04:08:05;;;;;;;;;;;;;;;15.92;66.56;101002.94;5035326;28;19924;-43
2022/09/03 04:10:30;;;;;;;;;;;;;;;15.90;66.36;100994.19;5033917;28;19917;-44
2022/09/03 04:12:55;;;;;;;;;;;;;;;15.87;67.12;101000.00;5035257;28;20375;-41
2022/09/03 04:15:20;;;;;;;;;;;;;;;15.85;66.79;101002.03;5033665;28;19916;-44
2022/09/03 04:17:46;;;;;;;;;;;;;;;15.83;65.82;100998.69;5033900;28;20025;-43
2022/09/03 04:20:11;;;;;;;;;;;;;;;15.80;67.01;101005.31;5025692;28;19912;-44
2022/09/03 04:22:36;;;;;;;;;;;;;;;15.77;67.34;100999.50;5024915;28;20213;-43
2022/09/03 04:25:01;;;;;;;;;;;;;;;15.79;67.34;101006.34;5033861;28;19909;-43
2022/09/03 04:27:26;;;;;;;;;;;;;;;15.77;67.40;100992.22;5035839;28;20322;-42
2022/09/03 04:29:51;;;;;;;;;;;;;;;15.74;66.98;101000.66;5032443;28;19919;-42
2022/09/03 04:35:00;;;;;;;;;;;;;;;15.70;66.56;100996.69;5034790;28;19985;-45
2022/09/03 04:37:26;;;;;;;;;;;;;;;15.68;67.39;100996.03;5034777;28;19916;-45
2022/09/03 04:39:53;;;;;;;;;;;;;;;15.65;66.92;100989.19;5066069;28;19921;-45
2022/09/03 04:42:18;;;;;;;;;;;;;;;15.64;67.37;100994.75;5034820;28;20351;-42
2022/09/03 04:44:43;;;;;;;;;;;;;;;15.62;67.97;100983.34;5030014;28;19959;-41
2022/09/03 04:47:08;;;;;;;;;;;;;;;15.60;68.08;100994.31;5021964;28;19949;-46
2022/09/03 04:49:34;;;;;;;;;;;;;;;15.59;68.08;100989.94;5028199;28;19936;-42
2022/09/03 04:51:59;;;;;;;;;;;;;;;15.57;67.38;100992.00;5028254;28;19908;-44
2022/09/03 04:54:24;;;;;;;;;;;;;;;15.56;67.73;100995.69;5034782;28;20230;-45
2022/09/03 04:56:49;;;;;;;;;;;;;;;15.58;67.65;100999.06;5035310;28;20311;-43
2022/09/03 04:59:14;;;;;;;;;;;;;;;15.58;68.16;100999.06;5032729;28;20371;-42
2022/09/03 05:01:40;;;;;;;;;;;;;;;15.59;68.03;101005.25;5030920;28;19912;-42
2022/09/03 05:04:05;;;;;;;;;;;;;;;15.57;67.94;101002.75;5034336;28;19924;-45
2022/09/03 05:06:31;;;;;;;;;;;;;;;15.59;68.55;100999.88;5034355;28;19908;-43
2022/09/03 05:08:56;;;;;;;;;;;;;;;15.58;68.70;101001.75;5033193;28;19917;-44
2022/09/03 05:11:23;;;;;;;;;;;;;;;15.58;68.51;101004.44;5058585;28;20378;-43
2022/09/03 05:13:49;;;;;;;;;;;;;;;15.58;68.81;100995.50;5031634;28;20352;-42
2022/09/03 05:16:15;;;;;;;;;;;;;;;15.58;69.40;101007.13;5030595;28;19912;-43
2022/09/03 05:18:41;;;;;;;;;;;;;;;15.60;69.00;101006.94;5029925;28;19928;-42
2022/09/03 05:21:07;;;;;;;;;;;;;;;15.62;69.04;101007.56;5026325;28;20016;-44
2022/09/03 05:23:36;;;;;;;;;;;;;;;15.61;68.99;101004.06;5035519;28;19999;-42
2022/09/03 05:26:03;;;;;;;;;;;;;;;15.61;69.64;101001.38;5037636;28;19935;-42
2022/09/03 05:28:29;;;;;;;;;;;;;;;15.62;68.89;101004.88;5054797;28;19982;-41
2022/09/03 05:31:02;;;;;;;;;;;;;;;15.62;69.35;100999.50;5036683;28;20334;-43
2022/09/03 05:33:27;;;;;;;;;;;;;;;15.63;69.04;101003.84;5036050;28;19958;-46
2022/09/03 05:35:53;;;;;;;;;;;;;;;15.63;69.45;100996.63;5029124;28;19913;-41
2022/09/03 05:38:19;;;;;;;;;;;;;;;15.63;69.68;100999.31;5035407;28;20007;-43
2022/09/03 05:40:44;;;;;;;;;;;;;;;15.62;69.57;100999.50;5037861;28;20292;-42
2022/09/03 05:43:09;;;;;;;;;;;;;;;15.64;69.24;101003.66;5039599;28;19920;-43
2022/09/03 05:45:35;;;;;;;;;;;;;;;15.66;69.60;101007.00;5069228;28;20374;-43
2022/09/03 05:48:01;;;;;;;;;;;;;;;15.67;68.82;100997.91;5038152;28;20003;-43
2022/09/03 05:50:26;;;;;;;;;;;;;;;15.66;68.87;101001.63;5038142;28;20426;-42
2022/09/03 05:52:51;;;;;;;;;;;;;;;15.70;69.64;101007.47;5036895;28;19913;-44
2022/09/03 05:55:17;;;;;;;;;;;;;;;15.71;70.23;101000.22;5038772;28;20000;-44
2022/09/03 05:57:42;;;;;;;;;;;;;;;15.73;68.73;101008.94;5038227;28;19913;-43
2022/09/03 06:00:08;;;;;;;;;;;;;;;15.72;70.11;101010.78;5036720;28;20120;-41
2022/09/03 06:02:33;;;;;;;;;;;;;;;15.74;70.42;101002.53;5038218;28;20143;-42
2022/09/03 06:04:59;;;;;;;;;;;;;;;15.76;70.03;101004.00;5037690;28;20015;-43
2022/09/03 06:07:24;;;;;;;;;;;;;;;15.80;69.96;101007.16;5037735;28;19935;-42
2022/09/03 06:09:49;;;;;;;;;;;;;;;15.85;68.80;101000.19;5037907;28;19963;-42
2022/09/03 06:12:14;;;;;;;;;;;;;;;15.90;69.74;101004.16;5037241;28;19972;-42
2022/09/03 06:14:39;;;;;;;;;;;;;;;15.93;69.95;101007.28;5035742;28;19916;-44
2022/09/03 06:17:05;;;;;;;;;;;;;;;15.96;70.79;101004.22;5036879;28;20023;-44
2022/09/03 06:19:30;;;;;;;;;;;;;;;15.98;70.07;100995.94;5038104;28;19916;-41
2022/09/03 06:21:55;;;;;;;;;;;;;;;16.01;70.79;101001.78;5021491;28;20092;-43
2022/09/03 06:24:22;;;;;;;;;;;;;;;16.08;70.61;101011.78;5070326;28;20126;-41
2022/09/03 06:26:47;;;;;;;;;;;;;;;16.16;70.45;101008.97;5035445;28;19909;-41
2022/09/03 06:29:13;;;;;;;;;;;;;;;16.28;70.10;101015.50;5037588;28;19909;-42
2022/09/03 06:31:38;;;;;;;;;;;;;;;16.42;68.10;101011.03;5033443;28;20015;-41
2022/09/03 06:34:04;;;;;;;;;;;;;;;16.57;69.11;101011.78;5037351;28;19935;-41
2022/09/03 06:36:30;;;;;;;;;;;;;;;16.70;68.93;101011.03;5037671;28;20571;-42
2022/09/03 06:38:55;;;;;;;;;;;;;;;16.81;68.93;101015.03;5036898;28;19964;-46
2022/09/03 06:41:24;;;;;;;;;;;;;;;16.91;68.02;101012.03;5037033;28;19914;-40
2022/09/03 06:43:51;;;;;;;;;;;;;;;17.01;67.45;101015.19;5037518;28;20439;-43
2022/09/03 06:46:18;;;;;;;;;;;;;;;17.08;66.83;101010.66;5035812;28;19955;-43
2022/09/03 06:48:43;;;;;;;;;;;;;;;17.15;66.88;101016.91;5036537;28;19918;-42
2022/09/03 06:51:10;;;;;;;;;;;;;;;17.24;67.15;101020.25;5037248;28;20030;-41
2022/09/03 06:53:36;;;;;;;;;;;;;;;17.34;65.97;101015.34;5035466;28;20256;-42
2022/09/03 06:56:05;;;;;;;;;;;;;;;17.47;65.81;101017.25;5036793;28;19909;-41
2022/09/03 06:58:31;;;;;;;;;;;;;;;17.57;65.96;101013.34;5037079;28;19912;-44
2022/09/03 07:01:00;;;;;;;;;;;;;;;17.67;65.79;101014.63;5034928;28;19915;-43
2022/09/03 07:03:25;;;;;;;;;;;;;;;17.79;64.98;101017.56;5036837;28;19962;-41
2022/09/03 07:05:50;;;;;;;;;;;;;;;17.94;64.96;101019.25;5034542;28;19913;-44
2022/09/03 07:08:15;;;;;;;;;;;;;;;18.16;65.26;101018.06;5036739;28;20306;-42
2022/09/03 07:10:45;;;;;;;;;;;;;;;18.45;64.46;101019.50;5037086;28;20128;-41
2022/09/03 07:13:10;;;;;;;;;;;;;;;18.79;62.49;101019.47;5037238;28;20423;-43
2022/09/03 07:15:36;;;;;;;;;;;;;;;19.08;61.98;101014.63;5035241;28;19948;-46
2022/09/03 07:18:01;;;;;;;;;;;;;;;19.30;61.21;101021.41;5023278;28;19916;-44
2022/09/03 07:20:26;;;;;;;;;;;;;;;19.50;60.08;101017.78;5031345;28;19909;-42
2022/09/03 07:22:55;;;;;;;;;;;;;;;19.67;59.67;101024.38;5027538;28;20103;-41
2022/09/03 07:25:20;;;;;;;;;;;;;;;19.85;59.20;101017.41;5035943;28;20007;-43
2022/09/03 07:27:46;;;;;;;;;;;;;;;19.96;59.53;101014.00;5036854;28;20036;-44
2022/09/03 07:30:11;;;;;;;;;;;;;;;20.05;58.74;101012.69;5033294;28;19958;-42
2022/09/03 07:32:39;;;;;;;;;;;;;;;20.12;59.07;101021.59;5036634;28;20143;-43
2022/09/03 07:35:05;;;;;;;;;;;;;;;20.22;58.12;101014.84;5036347;28;20363;-45
2022/09/03 07:37:30;;;;;;;;;;;;;;;20.30;58.23;101017.28;5036160;28;19982;-44
2022/09/03 07:39:56;;;;;;;;;;;;;;;20.37;57.10;101020.78;5035644;28;19955;-45
2022/09/03 07:42:21;;;;;;;;;;;;;;;20.42;57.10;101010.09;5034837;28;20114;-42
2022/09/03 07:44:46;;;;;;;;;;;;;;;20.52;55.31;101020.44;5035350;28;20347;-42
2022/09/03 07:47:13;;;;;;;;;;;;;;;20.57;53.70;101026.03;5035645;28;19908;-45
2022/09/03 07:49:39;;;;;;;;;;;;;;;20.56;52.31;101023.53;5028266;28;19912;-43
2022/09/03 07:52:04;;;;;;;;;;;;;;;20.58;53.85;101032.28;5036039;28;20413;-45
2022/09/03 07:54:30;;;;;;;;;;;;;;;20.71;54.78;101031.38;5035992;28;20389;-43
2022/09/03 07:56:55;;;;;;;;;;;;;;;20.83;53.15;101026.84;5036111;28;19908;-41
2022/09/03 07:59:21;;;;;;;;;;;;;;;20.89;54.46;101025.94;5034994;28;19924;-43
2022/09/03 08:01:47;;;;;;;;;;;;;;;21.02;52.95;101027.69;5034143;28;19908;-41
2022/09/03 08:04:12;;;;;;;;;;;;;;;21.14;53.11;101025.84;5037012;28;19908;-43
2022/09/03 08:06:38;;;;;;;;;;;;;;;21.21;52.67;101029.31;5030283;28;20956;-44
2022/09/03 08:09:07;;;;;;;;;;;;;;;21.30;53.10;101034.44;5029688;28;20315;-43
2022/09/03 08:11:35;;;;;;;;;;;;;;;21.41;51.94;101029.06;5036216;28;20377;-43
2022/09/03 08:14:01;;;;;;;;;;;;;;;21.52;51.90;101030.25;5035475;28;19908;-42
2022/09/03 08:16:30;;;;;;;;;;;;;;;21.56;50.28;101028.72;5033279;28;19999;-42
2022/09/03 08:18:56;;;;;;;;;;;;;;;21.49;51.52;101032.59;5034631;28;20381;-43
2022/09/03 08:21:21;;;;;;;;;;;;;;;21.45;52.23;101034.06;5022130;28;19913;-42
2022/09/03 08:23:47;;;;;;;;;;;;;;;21.40;53.32;101037.44;5034473;28;20346;-45
2022/09/03 08:26:13;;;;;;;;;;;;;;;21.39;54.33;101049.41;5036197;28;19916;-42
2022/09/03 08:28:39;;;;;;;;;;;;;;;21.56;53.63;101042.31;5035176;28;20315;-43
2022/09/03 08:31:13;;;;;;;;;;;;;;;21.72;53.66;101045.44;5033651;28;20315;-45
2022/09/03 08:33:41;;;;;;;;;;;;;;;22.01;52.98;101049.19;5036102;28;20066;-44
2022/09/03 08:36:11;;;;;;;;;;;;;;;22.27;51.10;101053.41;5034729;28;19909;-43
2022/09/03 08:38:37;;;;;;;;;;;;;;;22.47;49.51;101054.97;5034449;28;19917;-43
2022/09/03 08:41:03;;;;;;;;;;;;;;;22.54;49.33;101047.56;5035125;28;20473;-43
2022/09/03 08:43:28;;;;;;;;;;;;;;;22.60;49.27;101056.66;5035906;28;19909;-43
2022/09/03 08:45:54;;;;;;;;;;;;;;;22.69;48.96;101053.34;5032552;28;19908;-42
2022/09/03 08:48:21;;;;;;;;;;;;;;;22.82;48.83;101057.72;5035657;28;19919;-46
2022/09/03 08:50:50;;;;;;;;;;;;;;;22.94;49.96;101052.25;5034458;28;19912;-43
2022/09/03 08:53:27;;;;;;;;;;;;;;;23.06;49.27;101055.81;5034607;28;19909;-49
2022/09/03 08:55:55;;;;;;;;;;;;;;;23.17;47.96;101058.78;5035061;28;20394;-44
2022/09/03 08:58:28;;;;;;;;;;;;;;;23.22;48.53;101046.09;5034278;28;19916;-43
2022/09/03 09:01:02;;;;;;;;;;;;;;;23.29;49.15;101048.69;5031126;28;19908;-45
2022/09/03 09:03:30;;;;;;;;;;;;;;;23.41;46.84;101052.19;5034217;28;20192;-45
2022/09/03 09:06:06;;;;;;;;;;;;;;;23.47;44.87;101061.28;5035074;28;19908;-44
2022/09/03 09:08:37;;;;;;;;;;;;;;;23.52;45.88;101057.84;5034581;28;19916;-43
2022/09/03 09:11:09;;;;;;;;;;;;;;;23.61;45.40;101054.50;5034891;28;19912;-44
2022/09/03 09:13:44;;;;;;;;;;;;;;;23.65;47.15;101047.47;5028959;28;20267;-43
2022/09/03 09:16:14;;;;;;;;;;;;;;;23.81;45.07;101047.75;5033135;28;19909;-43
2022/09/03 09:18:55;;;;;;;;;;;;;;;23.92;44.99;101046.09;5035652;28;19980;-46
2022/09/03 09:21:28;;;;;;;;;;;;;;;24.01;45.59;101050.06;5021890;28;19917;-44
2022/09/03 09:23:55;;;;;;;;;;;;;;;24.14;44.95;101051.69;5020246;28;19908;-44
2022/09/03 09:26:21;;;;;;;;;;;;;;;24.21;44.25;101053.16;5035174;28;19986;-44
2022/09/03 09:28:52;;;;;;;;;;;;;;;24.27;45.00;101053.22;5035982;28;20339;-43
2022/09/03 09:31:19;;;;;;;;;;;;;;;24.35;44.26;101052.81;5033519;28;19940;-47
2022/09/03 09:33:45;;;;;;;;;;;;;;;24.35;45.26;101050.91;5034883;28;19908;-43
2022/09/03 09:36:14;;;;;;;;;;;;;;;24.46;44.71;101048.38;5035328;28;20241;-43
2022/09/03 09:38:40;;;;;;;;;;;;;;;24.48;44.59;101046.22;5034955;28;19912;-47
2022/09/03 09:41:08;;;;;;;;;;;;;;;24.49;44.58;101045.13;5033417;28;20010;-46
2022/09/03 09:43:34;;;;;;;;;;;;;;;24.68;44.93;101045.75;5035025;28;20438;-45
2022/09/03 09:46:05;;;;;;;;;;;;;;;24.80;44.06;101042.88;5032423;28;19986;-46
2022/09/03 09:48:33;;;;;;;;;;;;;;;24.89;42.84;101039.47;5034405;28;19912;-43
2022/09/03 09:51:04;;;;;;;;;;;;;;;24.98;42.32;101042.59;5034268;28;20077;-43
2022/09/03 09:53:30;;;;;;;;;;;;;;;25.11;41.81;101044.13;5034438;28;19908;-44
2022/09/03 09:55:56;;;;;;;;;;;;;;;25.19;42.48;101043.69;5033735;28;19908;-43
2022/09/03 09:58:23;;;;;;;;;;;;;;;25.31;41.13;101047.16;5034283;28;19971;-44
2022/09/03 10:00:59;;;;;;;;;;;;;;;25.45;40.34;101046.75;5032612;28;19913;-44
2022/09/03 10:03:26;;;;;;;;;;;;;;;25.57;40.72;101044.72;5037029;28;19913;-47
2022/09/03 10:06:00;;;;;;;;;;;;;;;25.71;42.03;101052.50;5038432;28;19909;-44
2022/09/03 10:08:26;;;;;;;;;;;;;;;25.77;38.89;101046.84;5036585;28;20375;-47
2022/09/03 10:10:51;;;;;;;;;;;;;;;25.84;39.96;101049.38;5037461;28;19909;-45
2022/09/03 10:13:20;;;;;;;;;;;;;;;25.94;40.49;101045.91;5038686;28;19932;-45
2022/09/03 10:15:59;;;;;;;;;;;;;;;26.11;40.91;101043.09;5037020;28;20332;-45
2022/09/03 10:18:45;;;;;;;;;;;;;;;26.28;38.82;101045.69;5024907;28;20028;-45
2022/09/03 10:21:14;;;;;;;;;;;;;;;26.41;38.57;101048.81;5026819;28;20323;-44
2022/09/03 10:23:42;;;;;;;;;;;;;;;26.51;37.01;101045.31;5036118;28;19908;-45
2022/09/03 10:26:09;;;;;;;;;;;;;;;26.54;37.28;101039.28;5037487;28;19913;-46
2022/09/03 10:28:40;;;;;;;;;;;;;;;26.53;38.16;101034.94;5038242;28;19913;-44
2022/09/03 10:31:10;;;;;;;;;;;;;;;26.67;37.30;101039.97;5034431;28;19912;-46
2022/09/03 10:33:41;;;;;;;;;;;;;;;26.76;37.15;101043.84;5036908;28;19915;-46
2022/09/03 10:36:10;;;;;;;;;;;;;;;26.80;36.60;101036.78;5037376;28;20275;-45
2022/09/03 10:38:36;;;;;;;;;;;;;;;26.83;36.17;101036.22;5031675;28;20368;-45
2022/09/03 10:41:07;;;;;;;;;;;;;;;26.90;37.24;101034.09;5037698;28;19908;-44
2022/09/03 10:43:41;;;;;;;;;;;;;;;27.03;35.07;101034.69;5037821;28;19964;-46
2022/09/03 10:46:14;;;;;;;;;;;;;;;27.05;36.33;101030.56;5022022;28;19913;-43
2022/09/03 10:48:57;;;;;;;;;;;;;;;27.24;36.02;101032.84;5038458;28;20000;-44
2022/09/03 10:51:25;;;;;;;;;;;;;;;27.42;35.03;101034.31;5025175;28;20355;-45
2022/09/03 10:53:53;;;;;;;;;;;;;;;27.45;36.12;101034.59;5036809;28;20269;-43
2022/09/03 10:56:36;;;;;;;;;;;;;;;27.58;36.70;101027.78;5037516;28;19949;-45
2022/09/03 10:59:23;;;;;;;;;;;;;;;27.71;35.29;101032.72;5036106;28;20402;-46
2022/09/03 11:02:14;;;;;;;;;;;;;;;27.81;36.36;101020.94;5035868;28;19908;-45
2022/09/03 11:04:49;;;;;;;;;;;;;;;27.88;37.21;101027.00;5037929;28;19908;-42
2022/09/03 11:07:19;;;;;;;;;;;;;;;28.03;35.29;101028.16;5036929;28;19931;-43
2022/09/03 11:09:47;;;;;;;;;;;;;;;28.05;35.57;101026.75;5037968;28;19979;-45
2022/09/03 11:12:20;;;;;;;;;;;;;;;28.06;35.84;101022.94;5037450;28;19916;-44
2022/09/03 11:14:55;;;;;;;;;;;;;;;28.05;35.23;101026.75;5035288;28;19916;-44
2022/09/03 11:17:25;;;;;;;;;;;;;;;28.12;35.59;101025.66;5036622;28;19909;-47
2022/09/03 11:19:55;;;;;;;;;;;;;;;28.25;35.84;101025.13;5033367;28;19908;-47
2022/09/03 11:22:22;;;;;;;;;;;;;;;28.32;34.78;101024.84;5023287;28;19923;-44
2022/09/03 11:24:52;;;;;;;;;;;;;;;28.33;34.44;101024.56;5036914;28;19909;-42
2022/09/03 11:27:34;;;;;;;;;;;;;;;28.39;35.17;101020.69;5035891;28;19940;-47
2022/09/03 11:30:02;;;;;;;;;;;;;;;28.44;34.67;101022.63;5034673;28;19915;-43
2022/09/03 11:32:53;;;;;;;;;;;;;;;28.50;35.40;101021.53;5036593;28;20158;-44
2022/09/03 11:35:27;;;;;;;;;;;;;;;28.55;34.76;101018.81;5035781;28;20306;-44
2022/09/03 11:38:03;;;;;;;;;;;;;;;28.61;35.16;101012.16;5036304;28;19964;-44
2022/09/03 11:40:32;;;;;;;;;;;;;;;28.84;34.97;101018.19;5036090;28;20191;-43
2022/09/03 11:43:06;;;;;;;;;;;;;;;28.96;33.03;101013.19;5036842;28;19916;-43
2022/09/03 11:45:31;;;;;;;;;;;;;;;28.88;32.88;101004.69;5033947;28;20617;-44
2022/09/03 11:47:57;;;;;;;;;;;;;;;28.79;33.11;101008.00;5035816;28;19974;-43
2022/09/03 11:50:27;;;;;;;;;;;;;;;28.78;34.45;101009.09;5035774;28;20295;-44
2022/09/03 11:52:53;;;;;;;;;;;;;;;28.87;34.84;101012.13;5022492;28;19901;-44
2022/09/03 11:55:28;;;;;;;;;;;;;;;29.01;34.68;101007.66;5036602;28;19913;-50
2022/09/03 11:57:53;;;;;;;;;;;;;;;29.12;33.60;101013.94;5036343;28;20137;-46
2022/09/03 12:00:21;;;;;;;;;;;;;;;29.27;34.06;101009.50;5033251;28;19924;-44
2022/09/03 12:02:56;;;;;;;;;;;;;;;29.38;32.97;101019.34;5035501;28;19928;-43
2022/09/03 12:05:22;;;;;;;;;;;;;;;29.36;33.27;101014.13;5035876;28;19909;-44
2022/09/03 12:08:05;;;;;;;;;;;;;;;29.34;32.41;101018.25;5035909;28;20370;-43
2022/09/03 12:10:31;;;;;;;;;;;;;;;29.38;33.62;101017.41;5034911;28;19908;-44
2022/09/03 12:13:02;;;;;;;;;;;;;;;29.55;32.66;101019.81;5035370;28;19916;-44
2022/09/03 12:15:58;;;;;;;;;;;;;;;29.62;32.95;101013.13;5034620;28;20196;-43
2022/09/03 12:18:25;;;;;;;;;;;;;;;29.64;31.32;101020.00;5022800;28;19916;-45
2022/09/03 12:20:54;;;;;;;;;;;;;;;29.73;33.25;101018.28;5025992;28;19909;-46
2022/09/03 12:23:28;;;;;;;;;;;;;;;29.85;32.62;101015.19;5030645;28;19909;-43
2022/09/03 12:25:53;;;;;;;;;;;;;;;29.88;32.43;101016.56;5033801;28;20254;-48
2022/09/03 12:28:22;;;;;;;;;;;;;;;30.04;32.54;101012.59;5035401;28;20364;-44
2022/09/03 12:30:48;;;;;;;;;;;;;;;30.13;32.33;101013.59;5033922;28;19909;-45
2022/09/03 12:33:16;;;;;;;;;;;;;;;30.20;31.29;101016.03;5036471;28;19962;-44
2022/09/03 12:35:41;;;;;;;;;;;;;;;30.35;31.34;101009.56;5034357;28;20331;-46
2022/09/03 12:38:07;;;;;;;;;;;;;;;30.62;30.31;101013.72;5035328;28;19965;-43
2022/09/03 12:40:32;;;;;;;;;;;;;;;30.86;31.58;101013.72;5035106;28;20473;-44
2022/09/03 12:43:13;;;;;;;;;;;;;;;31.39;30.74;101012.78;5035806;28;19908;-43
2022/09/03 12:45:43;;;;;;;;;;;;;;;32.00;28.78;101015.78;5033994;28;19923;-44